Terminal Aerodrome Forecast
Issued by NWS Buffalo, NY

Home | Current Version | Previous Version | Text Only | Print | Product List | Glossary On
Versions: 1 2 3 4 5 6 7 8 9 10 11 12 13 14 15 16 17 18 19 20 21 22 23 24 25
000
FTUS41 KBUF 300712 AAB
TAFBUF
TAF AMD
KBUF 300712Z 3007/3106 20008KT P6SM VCSH BKN050
      TEMPO 3008/3010 3SM SHRA BKN025
     FM301100 25008KT P6SM SCT250
     FM301500 25015KT P6SM FEW060
     FM301900 24019G25KT P6SM FEW060
     FM310000 24012KT P6SM FEW060
     FM310200 26008KT P6SM FEW250=

USA.gov is the U.S. government's official web portal to all federal, state and local government web resources and services.